Terminal Aerodrome Forecast
Issued by NWS

Home | Current Version | Previous Version | Text Only | Print | Product List | Glossary On
Versions: 1 2 3 4 5 6 7 8 9 10 11 12 13 14
000
FTUS44 KCRP 010500
TAFLRD
TAF
KLRD 010526Z 0106/0206 15008KT P6SM SKC
     FM010800 12005KT 6SM BR FEW015
      TEMPO 0110/0113 BKN008
     FM011600 14010KT P6SM SCT025
     FM020100 14009KT P6SM FEW020=

USA.gov is the U.S. government's official web portal to all federal, state and local government web resources and services.